Time;durP1;ratioP1;P1;durP2;ratioP2;P2;SDS_P1;SDS_P2;PMS_P1;PMS_P2;Temp;Humidity;BMP_temperature;BMP_pressure;BME280_temperature;BME280_humidity;BME280_pressure;Samples;Min_cycle;Max_cycle;Signal;HPM_P1;HPM_P2
2022/09/07 00:00:42;;;;;;;17.30;13.10;;;18.50;99.90;;;;;;5113124;28;20479;-63
2022/09/07 00:03:08;;;;;;;17.50;15.10;;;18.50;99.90;;;;;;5095432;28;20047;-63
2022/09/07 00:05:44;;;;;;;23.90;14.65;;;18.40;99.90;;;;;;5095800;28;20435;-62
2022/09/07 00:08:10;;;;;;;15.55;13.48;;;18.40;99.90;;;;;;5094416;28;20028;-63
2022/09/07 00:10:36;;;;;;;17.33;15.25;;;18.40;99.90;;;;;;5095996;28;20497;-63
2022/09/07 00:13:02;;;;;;;17.13;13.02;;;18.40;99.90;;;;;;5113585;28;20040;-63
2022/09/07 00:15:28;;;;;;;17.02;14.98;;;18.40;99.90;;;;;;5094960;28;20048;-63
2022/09/07 00:17:54;;;;;;;14.70;13.18;;;18.40;99.90;;;;;;5113985;28;20040;-62
2022/09/07 00:20:19;;;;;;;16.77;14.30;;;18.40;99.90;;;;;;5113099;28;20052;-63
2022/09/07 00:22:45;;;;;;;18.00;15.40;;;18.30;99.90;;;;;;5094725;28;20051;-63
2022/09/07 00:25:11;;;;;;;20.75;14.18;;;18.30;99.90;;;;;;5113000;28;20118;-63
2022/09/07 00:27:37;;;;;;;18.58;15.18;;;18.30;99.90;;;;;;5113545;28;20085;-63
2022/09/07 00:30:04;;;;;;;21.05;17.35;;;18.30;99.90;;;;;;5094074;28;20085;-63
2022/09/07 00:32:30;;;;;;;19.45;17.40;;;18.30;99.90;;;;;;5095166;28;20039;-62
2022/09/07 00:34:55;;;;;;;19.92;17.42;;;18.30;99.90;;;;;;5094724;28;20040;-63
2022/09/07 00:37:21;;;;;;;22.98;18.17;;;18.20;99.90;;;;;;5112114;28;20378;-63
2022/09/07 00:39:48;;;;;;;22.75;20.17;;;18.20;99.90;;;;;;5113404;28;20037;-61
2022/09/07 00:42:15;;;;;;;21.48;19.25;;;18.20;99.90;;;;;;5076890;28;20044;-61
2022/09/07 00:45:05;;;;;;;21.38;18.45;;;18.20;99.90;;;;;;5113037;28;20047;-61
2022/09/07 00:47:56;;;;;;;21.13;16.85;;;18.30;99.90;;;;;;5113395;28;20052;-61
2022/09/07 00:50:27;;;;;;;21.05;16.70;;;18.30;99.90;;;;;;5097065;28;20040;-61
2022/09/07 00:53:02;;;;;;;16.80;15.10;;;18.30;99.90;;;;;;5095035;28;20426;-61
2022/09/07 00:55:30;;;;;;;14.50;12.50;;;18.40;99.90;;;;;;5094869;28;20096;-61
2022/09/07 00:57:57;;;;;;;16.52;12.80;;;18.40;99.90;;;;;;5112127;28;20078;-61
2022/09/07 01:00:23;;;;;;;17.92;13.50;;;18.40;99.90;;;;;;5094162;28;20047;-61
2022/09/07 01:02:52;;;;;;;20.73;16.50;;;18.40;99.90;;;;;;5094812;28;20130;-61
2022/09/07 01:05:37;;;;;;;20.00;13.55;;;18.30;99.90;;;;;;5093447;28;20039;-60
2022/09/07 01:08:04;;;;;;;19.70;15.07;;;18.30;99.90;;;;;;5094359;28;20043;-61
2022/09/07 01:10:32;;;;;;;19.55;14.68;;;18.30;99.90;;;;;;5093679;28;20035;-61
2022/09/07 01:12:59;;;;;;;23.52;16.17;;;18.30;99.90;;;;;;5094661;28;20044;-60
2022/09/07 01:15:42;;;;;;;19.83;13.98;;;18.30;99.90;;;;;;5112313;28;20039;-61
2022/09/07 01:18:58;;;;;;;19.30;13.55;;;18.30;99.90;;;;;;5111684;28;20091;-61
2022/09/07 01:21:35;;;;;;;20.30;13.23;;;18.20;99.90;;;;;;4993853;28;20045;-61
2022/09/07 01:24:45;;;;;;;15.85;10.55;;;18.20;99.90;;;;;;5091942;28;20086;-61
2022/09/07 01:27:58;;;;;;;12.90;8.93;;;18.20;99.90;;;;;;5112252;28;20138;-61
2022/09/07 01:30:24;;;;;;;13.40;5.97;;;18.20;99.90;;;;;;5084515;28;20469;-61
2022/09/07 01:33:12;;;;;;;9.10;5.90;;;18.20;99.90;;;;;;5094009;28;20422;-61
2022/09/07 01:35:54;;;;;;;8.52;4.35;;;18.10;99.90;;;;;;5077822;28;20040;-61
2022/09/07 01:38:28;;;;;;;9.35;3.95;;;18.10;99.90;;;;;;5112117;28;20395;-61
2022/09/07 01:41:28;;;;;;;9.40;3.83;;;18.00;99.90;;;;;;5094326;28;20408;-61
2022/09/07 01:44:06;;;;;;;12.52;4.25;;;18.00;99.90;;;;;;5094179;28;20078;-61
2022/09/07 01:46:44;;;;;;;9.02;3.40;;;18.00;99.90;;;;;;5113813;28;20484;-61
2022/09/07 01:49:16;;;;;;;10.10;3.83;;;17.90;99.90;;;;;;5097979;28;20043;-62
2022/09/07 01:51:46;;;;;;;12.32;4.55;;;17.90;99.90;;;;;;5116871;28;20043;-62
2022/09/07 01:54:30;;;;;;;11.18;5.45;;;17.90;99.90;;;;;;5096791;28;20057;-61
2022/09/07 01:57:01;;;;;;;13.73;9.55;;;18.00;99.90;;;;;;5081598;28;20054;-62
2022/09/07 01:59:50;;;;;;;15.40;8.18;;;17.90;99.90;;;;;;5116339;28;20040;-60
2022/09/07 02:02:19;;;;;;;6.78;3.53;;;18.00;99.90;;;;;;5097781;28;20035;-59
2022/09/07 02:05:00;;;;;;;7.40;4.13;;;17.90;99.90;;;;;;5116499;28;20048;-60
2022/09/07 02:07:43;;;;;;;8.30;4.35;;;17.90;99.90;;;;;;5096923;28;20046;-60
2022/09/07 02:10:20;;;;;;;11.18;5.38;;;17.90;99.90;;;;;;5097258;28;20058;-63
2022/09/07 02:12:58;;;;;;;9.35;4.22;;;17.80;99.90;;;;;;5116454;28;20043;-61
2022/09/07 02:15:34;;;;;;;10.75;4.55;;;17.80;99.90;;;;;;5096805;28;20032;-61
2022/09/07 02:18:04;;;;;;;8.13;4.15;;;17.80;99.90;;;;;;5116126;28;20118;-61
2022/09/07 02:20:35;;;;;;;9.13;5.10;;;17.80;99.90;;;;;;5115878;28;20404;-61
2022/09/07 02:23:05;;;;;;;8.55;3.83;;;17.70;99.90;;;;;;5097571;28;20047;-61
2022/09/07 02:25:52;;;;;;;6.28;3.70;;;17.70;99.90;;;;;;5097817;28;20046;-61
2022/09/07 02:28:23;;;;;;;7.78;3.28;;;17.70;99.90;;;;;;5114709;28;20032;-61
2022/09/07 02:30:49;;;;;;;7.20;3.67;;;17.60;99.90;;;;;;5097695;28;20086;-62
2022/09/07 02:33:14;;;;;;;8.88;3.50;;;17.60;99.90;;;;;;5115257;28;20067;-61
2022/09/07 02:35:40;;;;;;;6.32;2.80;;;17.60;99.90;;;;;;5115202;28;20092;-61
2022/09/07 02:38:06;;;;;;;7.07;2.67;;;17.50;99.90;;;;;;5115042;28;20400;-61
2022/09/07 02:40:33;;;;;;;7.40;2.40;;;17.50;99.90;;;;;;5115629;28;20050;-61
2022/09/07 02:43:04;;;;;;;7.45;2.58;;;17.40;99.90;;;;;;5080043;28;20428;-61
2022/09/07 02:45:41;;;;;;;6.78;2.67;;;17.40;99.90;;;;;;5115910;28;20047;-61
2022/09/07 02:48:41;;;;;;;6.80;3.10;;;17.30;99.90;;;;;;5096869;28;20514;-62
2022/09/07 02:51:15;;;;;;;6.72;2.90;;;17.30;99.90;;;;;;5095848;28;20036;-62
2022/09/07 02:54:01;;;;;;;8.43;3.15;;;17.20;99.90;;;;;;5115287;28;20116;-61
2022/09/07 02:57:23;;;;;;;5.70;2.88;;;17.20;99.90;;;;;;5079386;28;20051;-62
2022/09/07 02:59:52;;;;;;;5.57;2.95;;;17.20;99.90;;;;;;4996447;28;20053;-62
2022/09/07 03:02:53;;;;;;;6.95;3.53;;;17.20;99.90;;;;;;4979808;28;20041;-62
2022/09/07 03:05:25;;;;;;;6.22;3.40;;;17.20;99.90;;;;;;5066838;28;20083;-62
2022/09/07 03:08:03;;;;;;;6.30;2.60;;;17.20;99.90;;;;;;5096961;28;20051;-62
2022/09/07 03:10:29;;;;;;;7.57;3.20;;;17.20;99.90;;;;;;5114364;28;20042;-62
2022/09/07 03:12:55;;;;;;;6.95;2.38;;;17.10;99.90;;;;;;5097160;28;20047;-62
2022/09/07 03:15:24;;;;;;;8.40;2.88;;;17.10;99.90;;;;;;5096344;28;20054;-61
2022/09/07 03:17:50;;;;;;;6.57;3.10;;;17.10;99.90;;;;;;5114339;28;20039;-61
2022/09/07 03:20:16;;;;;;;6.38;3.10;;;17.10;99.90;;;;;;5114251;28;20074;-61
2022/09/07 03:22:47;;;;;;;5.38;2.80;;;17.10;99.90;;;;;;5114753;28;20044;-61
2022/09/07 03:25:12;;;;;;;5.22;2.70;;;17.10;99.90;;;;;;5095253;28;20054;-62
2022/09/07 03:27:38;;;;;;;6.68;2.63;;;17.10;99.90;;;;;;5114983;28;20399;-62
2022/09/07 03:30:05;;;;;;;6.07;2.47;;;17.10;99.90;;;;;;5114304;28;20384;-62
2022/09/07 03:32:33;;;;;;;6.40;2.67;;;17.10;99.90;;;;;;5113891;28;20039;-62
2022/09/07 03:34:59;;;;;;;8.38;2.88;;;17.10;99.90;;;;;;5096537;28;20039;-62
2022/09/07 03:37:25;;;;;;;7.03;3.20;;;17.20;99.90;;;;;;5113815;28;20395;-61
2022/09/07 03:39:51;;;;;;;8.55;3.28;;;17.20;99.90;;;;;;5095742;28;20047;-62
2022/09/07 03:42:17;;;;;;;6.00;2.88;;;17.10;99.90;;;;;;5113977;28;20488;-62
2022/09/07 03:44:42;;;;;;;5.10;2.35;;;17.20;99.90;;;;;;5096270;28;20479;-62
2022/09/07 03:47:08;;;;;;;6.63;2.78;;;17.10;99.90;;;;;;5113211;28;20074;-62
2022/09/07 03:49:34;;;;;;;8.35;2.85;;;17.10;99.90;;;;;;5096511;28;20071;-62
2022/09/07 03:51:59;;;;;;;11.85;3.58;;;17.20;99.90;;;;;;5079066;28;20491;-62
2022/09/07 03:54:25;;;;;;;6.35;3.13;;;17.10;99.90;;;;;;5113725;28;20044;-62
2022/09/07 03:56:51;;;;;;;6.18;2.78;;;17.20;99.90;;;;;;5114342;28;20036;-62
2022/09/07 03:59:16;;;;;;;5.63;2.97;;;17.10;99.90;;;;;;5094741;28;20047;-61
2022/09/07 04:01:42;;;;;;;8.52;2.90;;;17.20;99.90;;;;;;5114213;28;20043;-62
2022/09/07 04:04:08;;;;;;;6.00;2.47;;;17.20;99.90;;;;;;5095342;28;20399;-61
2022/09/07 04:06:33;;;;;;;5.90;2.80;;;17.10;99.90;;;;;;5095127;28;20040;-61
2022/09/07 04:09:05;;;;;;;8.20;3.05;;;17.20;99.90;;;;;;5113571;28;20031;-62
2022/09/07 04:11:31;;;;;;;7.15;2.85;;;17.20;99.90;;;;;;5095526;28;20043;-62
2022/09/07 04:13:57;;;;;;;8.38;3.20;;;17.10;99.90;;;;;;5113254;28;20122;-62
2022/09/07 04:16:25;;;;;;;11.50;3.67;;;17.20;99.90;;;;;;5113209;28;20047;-62
2022/09/07 04:18:54;;;;;;;12.60;3.90;;;17.10;99.90;;;;;;5095473;28;20051;-62
2022/09/07 04:21:22;;;;;;;10.48;3.67;;;17.10;99.90;;;;;;5094161;28;20395;-62
2022/09/07 04:23:48;;;;;;;12.48;4.35;;;17.10;99.90;;;;;;5078696;28;20519;-62
2022/09/07 04:26:19;;;;;;;11.95;3.70;;;17.10;99.90;;;;;;5095180;28;20422;-62
2022/09/07 04:28:46;;;;;;;12.85;4.47;;;17.10;99.90;;;;;;5094767;28;20048;-62
2022/09/07 04:31:14;;;;;;;9.60;4.50;;;17.10;99.90;;;;;;5113034;28;20127;-61
2022/09/07 04:33:41;;;;;;;9.70;4.20;;;17.10;99.90;;;;;;5095404;28;20039;-62
2022/09/07 04:36:07;;;;;;;11.73;5.05;;;17.10;99.90;;;;;;5076914;28;20131;-62
2022/09/07 04:38:33;;;;;;;13.48;4.65;;;17.20;99.90;;;;;;5113703;28;20081;-62
2022/09/07 04:41:08;;;;;;;10.95;4.50;;;17.20;99.90;;;;;;5078606;28;20032;-62
2022/09/07 04:43:35;;;;;;;8.38;3.95;;;17.20;99.90;;;;;;5112604;28;20046;-62
2022/09/07 04:46:11;;;;;;;15.02;5.22;;;17.20;99.90;;;;;;5113204;28;20119;-62
2022/09/07 04:48:37;;;;;;;11.10;4.95;;;17.20;99.90;;;;;;5112637;28;20042;-61
2022/09/07 04:51:04;;;;;;;10.52;4.93;;;17.20;99.90;;;;;;5113073;28;20425;-62
2022/09/07 04:53:30;;;;;;;9.68;4.40;;;17.20;99.90;;;;;;5095356;28;20047;-62
2022/09/07 04:55:59;;;;;;;16.90;5.40;;;17.20;99.90;;;;;;5094135;28;20047;-62
2022/09/07 04:58:25;;;;;;;8.02;4.45;;;17.20;99.90;;;;;;5094627;28;20099;-62
2022/09/07 05:00:50;;;;;;;12.23;4.88;;;17.20;99.90;;;;;;5094812;28;20563;-62
2022/09/07 05:03:16;;;;;;;13.05;5.20;;;17.20;99.90;;;;;;5111725;28;20404;-62
2022/09/07 05:05:41;;;;;;;10.20;5.18;;;17.20;99.90;;;;;;5094757;28;20047;-62
2022/09/07 05:08:07;;;;;;;11.88;5.32;;;17.20;99.90;;;;;;5094416;28;20373;-62
2022/09/07 05:10:33;;;;;;;10.07;5.32;;;17.20;99.90;;;;;;5112258;28;20124;-62
2022/09/07 05:12:59;;;;;;;9.73;4.25;;;17.20;99.90;;;;;;5112974;28;20100;-62
2022/09/07 05:15:27;;;;;;;11.20;5.80;;;17.20;99.90;;;;;;5094213;28;20127;-62
2022/09/07 05:17:52;;;;;;;9.82;4.90;;;17.20;99.90;;;;;;5093749;28;20054;-62
2022/09/07 05:20:19;;;;;;;10.02;5.22;;;17.20;99.90;;;;;;5093569;27;20048;-62
2022/09/07 05:22:46;;;;;;;11.88;5.82;;;17.20;99.90;;;;;;5077884;28;20036;-62
2022/09/07 05:25:11;;;;;;;10.20;5.68;;;17.20;99.90;;;;;;5093352;28;20131;-62
2022/09/07 05:27:37;;;;;;;8.73;5.28;;;17.20;99.90;;;;;;5112677;28;20126;-62
2022/09/07 05:30:03;;;;;;;9.50;5.70;;;17.20;99.90;;;;;;5094027;28;20034;-62
2022/09/07 05:32:29;;;;;;;9.88;4.97;;;17.30;99.90;;;;;;5093680;28;20490;-62
2022/09/07 05:34:54;;;;;;;10.50;5.32;;;17.30;99.90;;;;;;5094549;28;20043;-62
2022/09/07 05:37:20;;;;;;;9.25;5.18;;;17.30;99.90;;;;;;5112095;28;20114;-62
2022/09/07 05:39:46;;;;;;;10.40;5.43;;;17.30;99.90;;;;;;5111906;28;20115;-62
2022/09/07 05:42:12;;;;;;;9.55;5.97;;;17.30;99.90;;;;;;5093756;28;20043;-62
2022/09/07 05:44:38;;;;;;;9.32;5.70;;;17.30;99.90;;;;;;5076638;28;20055;-62
2022/09/07 05:47:03;;;;;;;9.23;5.97;;;17.30;99.90;;;;;;5093959;28;20040;-62
2022/09/07 05:49:29;;;;;;;10.70;5.93;;;17.30;99.90;;;;;;5094740;28;20032;-62
2022/09/07 05:51:55;;;;;;;11.57;5.72;;;17.30;99.90;;;;;;5093552;28;20059;-62
2022/09/07 05:54:21;;;;;;;8.80;6.38;;;17.30;99.90;;;;;;5093641;28;20102;-62
2022/09/07 05:56:46;;;;;;;7.75;5.35;;;17.30;99.90;;;;;;5094213;28;20043;-62
2022/09/07 05:59:12;;;;;;;9.82;7.00;;;17.30;99.90;;;;;;5076064;28;20046;-62
2022/09/07 06:01:38;;;;;;;8.45;6.45;;;17.30;99.90;;;;;;5094182;28;20066;-62
2022/09/07 06:04:03;;;;;;;8.73;5.70;;;17.40;99.90;;;;;;5093654;28;20047;-61
2022/09/07 06:06:29;;;;;;;8.75;6.22;;;17.40;99.90;;;;;;5093646;28;20056;-62
2022/09/07 06:08:56;;;;;;;8.43;5.60;;;17.40;99.90;;;;;;5112659;28;20058;-62
2022/09/07 06:11:23;;;;;;;8.80;6.13;;;17.40;99.90;;;;;;5111936;28;20039;-62
2022/09/07 06:13:49;;;;;;;10.48;6.25;;;17.40;99.90;;;;;;5093277;28;20043;-61
2022/09/07 06:16:17;;;;;;;8.85;6.40;;;17.30;99.90;;;;;;5111751;28;20126;-61
2022/09/07 06:18:46;;;;;;;8.55;5.97;;;17.30;99.90;;;;;;5093854;28;20039;-62
2022/09/07 06:21:13;;;;;;;6.80;4.70;;;17.40;99.90;;;;;;5110936;28;20127;-62
2022/09/07 06:23:40;;;;;;;9.70;6.90;;;17.30;99.90;;;;;;5112085;28;20069;-62
2022/09/07 06:26:06;;;;;;;8.98;6.88;;;17.30;99.90;;;;;;5111590;28;20036;-62
2022/09/07 06:28:43;;;;;;;11.80;6.85;;;17.30;99.90;;;;;;5111474;28;20035;-62
2022/09/07 06:31:12;;;;;;;8.80;6.70;;;17.30;99.90;;;;;;5093654;28;20043;-62
2022/09/07 06:33:39;;;;;;;9.50;7.15;;;17.30;99.90;;;;;;5095952;28;20516;-62
2022/09/07 06:36:17;;;;;;;10.73;7.40;;;17.30;99.90;;;;;;5096156;28;20541;-62
2022/09/07 06:38:43;;;;;;;10.70;7.50;;;17.30;99.90;;;;;;5115770;28;20081;-62
2022/09/07 06:41:11;;;;;;;13.15;8.00;;;17.30;99.90;;;;;;5117675;27;20476;-61
2022/09/07 06:43:37;;;;;;;11.38;8.90;;;17.30;99.90;;;;;;5097552;28;20490;-62
2022/09/07 06:46:04;;;;;;;11.52;9.20;;;17.40;99.90;;;;;;5096623;28;20044;-61
2022/09/07 06:48:30;;;;;;;10.68;7.63;;;17.40;99.90;;;;;;5114747;28;20047;-62
2022/09/07 06:50:58;;;;;;;12.20;9.25;;;17.40;99.90;;;;;;5080623;28;20043;-62
2022/09/07 06:53:25;;;;;;;12.45;8.73;;;17.50;99.90;;;;;;5083630;27;20085;-62
2022/09/07 06:55:52;;;;;;;11.80;9.95;;;17.50;99.90;;;;;;5121271;27;20131;-62
2022/09/07 06:58:18;;;;;;;12.63;11.18;;;17.50;99.90;;;;;;5096627;28;20047;-62
2022/09/07 07:00:43;;;;;;;13.60;11.85;;;17.50;99.90;;;;;;5097067;28;20035;-62
2022/09/07 07:03:09;;;;;;;13.05;11.68;;;17.60;99.90;;;;;;5094901;27;20138;-62
2022/09/07 07:05:35;;;;;;;16.55;14.07;;;17.60;99.90;;;;;;5096225;28;20040;-62
2022/09/07 07:08:00;;;;;;;15.07;12.30;;;17.70;99.90;;;;;;5095799;27;20702;-61
2022/09/07 07:10:26;;;;;;;15.52;12.38;;;17.70;99.90;;;;;;5113220;27;20072;-62
2022/09/07 07:12:55;;;;;;;14.15;11.40;;;17.70;99.90;;;;;;5133390;27;20032;-62
2022/09/07 07:15:26;;;;;;;16.70;14.90;;;17.70;99.90;;;;;;5109536;28;20505;-62
2022/09/07 07:17:51;;;;;;;19.70;15.05;;;17.80;99.90;;;;;;5093735;28;20083;-62
2022/09/07 07:20:17;;;;;;;17.25;13.35;;;17.80;99.90;;;;;;5089157;28;20106;-62
2022/09/07 07:22:43;;;;;;;17.50;14.52;;;17.80;99.90;;;;;;5076454;28;20097;-63
2022/09/07 07:25:08;;;;;;;19.00;14.50;;;17.80;99.90;;;;;;5090288;28;20092;-62
2022/09/07 07:27:34;;;;;;;21.63;17.42;;;17.80;99.90;;;;;;5093420;28;20123;-62
2022/09/07 07:30:00;;;;;;;17.15;14.32;;;17.90;99.90;;;;;;5091046;28;20046;-62
2022/09/07 07:32:26;;;;;;;17.42;15.20;;;17.90;99.90;;;;;;5090076;28;20036;-62
2022/09/07 07:35:20;;;;;;;18.65;15.15;;;17.90;99.90;;;;;;5098646;28;20051;-62
2022/09/07 07:37:47;;;;;;;17.60;15.43;;;17.90;99.90;;;;;;5096002;28;20067;-62
2022/09/07 07:40:13;;;;;;;21.00;15.70;;;18.00;99.90;;;;;;5073965;28;20297;-62
2022/09/07 07:42:40;;;;;;;20.75;15.43;;;18.00;99.90;;;;;;5092554;28;20043;-62
2022/09/07 07:45:07;;;;;;;18.30;16.35;;;18.00;99.90;;;;;;5090987;28;20058;-62
2022/09/07 07:47:34;;;;;;;19.30;17.23;;;18.00;99.90;;;;;;5090503;28;20052;-62
2022/09/07 07:50:01;;;;;;;19.65;17.42;;;18.00;99.90;;;;;;5101129;28;20372;-62
2022/09/07 07:52:38;;;;;;;17.77;14.50;;;18.00;99.90;;;;;;5090875;28;20044;-62
2022/09/07 07:55:05;;;;;;;16.83;15.00;;;18.10;99.90;;;;;;5096937;28;20469;-62
2022/09/07 07:57:31;;;;;;;16.80;15.00;;;18.20;99.90;;;;;;5111636;28;20043;-63
2022/09/07 07:59:56;;;;;;;18.92;16.88;;;18.40;99.90;;;;;;5092972;28;20085;-62
2022/09/07 08:02:22;;;;;;;17.13;14.68;;;18.50;99.90;;;;;;5089563;28;20044;-62
2022/09/07 08:04:48;;;;;;;17.75;14.57;;;18.60;99.90;;;;;;5092586;28;20032;-62
2022/09/07 08:07:14;;;;;;;17.70;14.60;;;18.70;99.90;;;;;;5105578;28;20028;-62
2022/09/07 08:09:42;;;;;;;16.50;14.80;;;18.80;99.90;;;;;;5105189;28;20089;-62
2022/09/07 08:12:15;;;;;;;17.25;15.40;;;18.80;99.90;;;;;;5101419;28;20479;-62
2022/09/07 08:14:41;;;;;;;16.02;14.32;;;18.90;99.90;;;;;;5091310;28;20048;-62
2022/09/07 08:17:12;;;;;;;17.38;15.50;;;18.90;99.90;;;;;;5071598;28;20538;-63
2022/09/07 08:19:38;;;;;;;13.68;11.52;;;18.90;99.90;;;;;;5100490;28;20167;-62
2022/09/07 08:22:04;;;;;;;17.45;14.57;;;19.00;99.90;;;;;;5100175;28;20097;-61
2022/09/07 08:24:30;;;;;;;17.98;13.90;;;19.10;99.90;;;;;;5085639;28;20430;-61
2022/09/07 08:26:56;;;;;;;15.95;13.88;;;19.10;99.90;;;;;;5099543;28;20032;-61
2022/09/07 08:29:22;;;;;;;15.93;14.23;;;19.10;99.90;;;;;;5079418;28;20428;-62
2022/09/07 08:31:48;;;;;;;14.52;12.65;;;19.10;99.90;;;;;;5109010;28;20042;-61
2022/09/07 08:34:14;;;;;;;16.40;13.57;;;19.10;99.90;;;;;;5092026;28;20035;-61
2022/09/07 08:36:40;;;;;;;17.02;14.85;;;19.20;99.90;;;;;;5093106;28;20113;-61
2022/09/07 08:39:05;;;;;;;13.73;12.15;;;19.10;99.90;;;;;;5100469;28;20043;-61
2022/09/07 08:41:59;;;;;;;14.32;11.80;;;19.10;99.90;;;;;;5093862;28;20139;-61
2022/09/07 08:44:32;;;;;;;15.80;13.90;;;19.10;99.90;;;;;;5094978;28;20036;-62
2022/09/07 08:47:02;;;;;;;15.40;11.73;;;19.20;99.90;;;;;;5096130;28;20047;-61
2022/09/07 08:49:52;;;;;;;13.60;12.10;;;19.20;99.90;;;;;;5108456;28;20371;-61
2022/09/07 08:52:55;;;;;;;14.63;13.07;;;19.30;99.90;;;;;;5071345;28;20338;-62
2022/09/07 08:55:38;;;;;;;15.25;12.90;;;19.30;99.90;;;;;;5091846;28;20196;-61
2022/09/07 08:58:35;;;;;;;14.15;11.85;;;19.30;99.90;;;;;;5109605;28;20090;-61
2022/09/07 09:01:05;;;;;;;12.98;11.65;;;19.20;99.90;;;;;;5110519;28;20054;-61
2022/09/07 09:03:32;;;;;;;12.77;11.35;;;19.10;99.90;;;;;;5109296;28;20048;-61
2022/09/07 09:06:03;;;;;;;13.07;10.13;;;19.10;99.90;;;;;;5111569;28;20048;-61
2022/09/07 09:08:48;;;;;;;13.25;10.73;;;19.20;99.90;;;;;;5099781;28;20036;-61
2022/09/07 09:12:09;;;;;;;11.60;9.82;;;19.40;99.90;;;;;;5089222;28;20158;-62
2022/09/07 09:15:30;;;;;;;12.85;11.20;;;19.40;99.90;;;;;;5055155;28;20163;-61
2022/09/07 09:18:14;;;;;;;14.48;10.82;;;19.60;99.90;;;;;;4972393;28;20129;-61
2022/09/07 09:20:57;;;;;;;13.77;11.70;;;19.60;99.90;;;;;;5044305;28;20101;-62
2022/09/07 09:23:25;;;;;;;11.82;9.65;;;19.80;99.90;;;;;;5072153;28;20060;-62
2022/09/07 09:26:07;;;;;;;11.98;9.95;;;19.90;99.90;;;;;;5090052;28;20044;-62
2022/09/07 09:28:32;;;;;;;11.73;9.65;;;20.00;99.90;;;;;;5088227;28;20054;-62
2022/09/07 09:30:58;;;;;;;12.88;8.73;;;20.00;99.90;;;;;;5091568;28;20036;-62
2022/09/07 09:33:27;;;;;;;9.75;7.80;;;20.20;99.90;;;;;;5096508;28;20070;-61
2022/09/07 09:35:59;;;;;;;9.60;8.60;;;20.20;99.90;;;;;;5091093;28;20068;-61
2022/09/07 09:38:33;;;;;;;9.45;7.43;;;20.30;99.90;;;;;;5066996;28;20048;-61
2022/09/07 09:41:03;;;;;;;;;;;20.40;99.90;;;;;;5081906;28;20492;-62
2022/09/07 09:43:45;;;;;;;7.85;6.20;;;20.40;99.90;;;;;;5077048;28;19921;-61
2022/09/07 09:46:17;;;;;;;8.32;6.65;;;20.50;99.90;;;;;;5085296;28;20123;-61
2022/09/07 09:48:56;;;;;;;9.52;6.95;;;20.50;99.90;;;;;;5070820;28;20041;-60
2022/09/07 09:51:23;;;;;;;9.65;6.97;;;20.50;99.90;;;;;;5070650;28;20041;-61
2022/09/07 09:53:54;;;;;;;11.40;7.78;;;20.60;99.90;;;;;;5071416;28;20037;-61
2022/09/07 09:56:21;;;;;;;8.02;6.25;;;20.60;99.90;;;;;;5070280;28;20062;-61
2022/09/07 09:58:47;;;;;;;9.52;5.55;;;20.70;99.90;;;;;;5078984;28;20139;-60
2022/09/07 10:01:33;;;;;;;9.45;6.57;;;20.80;99.90;;;;;;5071361;28;20115;-60
2022/09/07 10:04:31;;;;;;;7.30;4.93;;;20.90;99.90;;;;;;5071790;28;20041;-60
2022/09/07 10:07:24;;;;;;;9.00;5.60;;;21.00;99.90;;;;;;5079464;28;20094;-60
2022/09/07 10:09:52;;;;;;;7.82;6.10;;;21.00;99.90;;;;;;5094511;28;20039;-61
2022/09/07 10:12:35;;;;;;;7.90;6.07;;;21.00;99.90;;;;;;5079141;28;20112;-60
2022/09/07 10:15:03;;;;;;;8.40;5.00;;;21.10;99.90;;;;;;5075810;28;20036;-60
2022/09/07 10:17:40;;;;;;;7.70;4.63;;;21.10;99.90;;;;;;5074607;28;20048;-61
2022/09/07 10:20:14;;;;;;;5.82;4.30;;;21.20;99.90;;;;;;5105832;28;20056;-61
2022/09/07 10:22:58;;;;;;;6.68;3.95;;;21.10;99.90;;;;;;5095699;28;20050;-61
2022/09/07 10:25:27;;;;;;;8.38;3.17;;;21.10;99.90;;;;;;5095271;27;20035;-61
2022/09/07 10:28:11;;;;;;;5.55;3.05;;;21.10;99.90;;;;;;5103063;28;20043;-61
2022/09/07 10:30:37;;;;;;;5.22;3.20;;;21.10;99.90;;;;;;5130843;27;20483;-61
2022/09/07 10:33:11;;;;;;;7.43;3.70;;;21.10;99.90;;;;;;5131528;27;20054;-61
2022/09/07 10:35:47;;;;;;;;;;;21.20;99.90;;;;;;5108633;28;20042;-61
2022/09/07 10:38:22;;;;;;;5.18;2.70;;;21.30;99.90;;;;;;5106883;28;19967;-61
2022/09/07 10:41:09;;;;;;;6.97;3.00;;;21.30;99.90;;;;;;5086429;27;20428;-61
2022/09/07 10:43:48;;;;;;;5.63;3.00;;;21.30;99.90;;;;;;5102681;28;20047;-62
2022/09/07 10:46:17;;;;;;;5.10;3.10;;;21.40;99.90;;;;;;5103981;28;20158;-61
2022/09/07 10:49:02;;;;;;;5.90;2.63;;;21.50;99.90;;;;;;5093553;28;20044;-62
2022/09/07 10:51:53;;;;;;;6.10;3.20;;;21.60;99.90;;;;;;5102598;27;20039;-62
2022/09/07 10:54:21;;;;;;;5.30;3.00;;;21.70;99.90;;;;;;5135109;27;20036;-63
2022/09/07 10:57:06;;;;;;;4.60;2.53;;;21.80;99.90;;;;;;5126202;27;20081;-63
2022/09/07 10:59:50;;;;;;;;;;;21.90;99.90;;;;;;5098049;28;20040;-62
2022/09/07 11:02:35;;;;;;;6.15;2.28;;;22.00;99.90;;;;;;5115295;27;20011;-63
2022/09/07 11:05:00;;;;;;;5.10;2.33;;;22.10;99.90;;;;;;5098668;28;20044;-62
2022/09/07 11:07:26;;;;;;;4.65;1.85;;;22.20;99.90;;;;;;5094439;28;20412;-62
2022/09/07 11:10:10;;;;;;;6.30;2.22;;;22.20;99.90;;;;;;5093993;28;20101;-62
2022/09/07 11:12:38;;;;;;;4.47;2.20;;;22.30;99.90;;;;;;5076881;28;20097;-62
2022/09/07 11:15:12;;;;;;;4.78;2.20;;;22.40;99.90;;;;;;5094167;28;20050;-62
2022/09/07 11:18:03;;;;;;;4.13;2.00;;;22.60;99.90;;;;;;5076852;28;20044;-62
2022/09/07 11:20:41;;;;;;;5.38;2.30;;;22.70;99.90;;;;;;5042765;28;20117;-62
2022/09/07 11:23:21;;;;;;;4.32;2.10;;;22.80;99.90;;;;;;5093159;28;20545;-62
2022/09/07 11:26:01;;;;;;;4.90;2.00;;;22.90;99.90;;;;;;5094509;28;20040;-62
2022/09/07 11:28:43;;;;;;;5.72;2.05;;;23.00;99.90;;;;;;5076354;28;20377;-62
2022/09/07 11:31:31;;;;;;;4.82;2.08;;;22.90;99.90;;;;;;5075119;28;20036;-62
2022/09/07 11:33:56;;;;;;;4.07;1.55;;;22.80;99.90;;;;;;5094576;28;20043;-62
2022/09/07 11:36:23;;;;;;;3.92;1.60;;;22.80;99.90;;;;;;5075220;28;20347;-61
2022/09/07 11:38:52;;;;;;;6.28;2.80;;;22.80;99.90;;;;;;5076441;28;20131;-62
2022/09/07 11:41:23;;;;;;;4.45;2.03;;;22.70;99.90;;;;;;5093864;28;20119;-62
2022/09/07 11:44:08;;;;;;;7.18;2.20;;;22.70;99.90;;;;;;5075084;28;20036;-62
2022/09/07 11:46:48;;;;;;;4.45;1.58;;;22.60;99.90;;;;;;5094205;28;20097;-62
2022/09/07 11:49:22;;;;;;;5.05;1.88;;;22.60;99.90;;;;;;5075416;28;20055;-62
2022/09/07 11:52:05;;;;;;;5.15;1.90;;;22.60;99.90;;;;;;5093386;28;20047;-62
2022/09/07 11:54:47;;;;;;;4.65;1.75;;;22.60;99.90;;;;;;5075883;28;20061;-62
2022/09/07 11:57:34;;;;;;;4.10;1.92;;;22.60;99.90;;;;;;5059176;28;20036;-61
2022/09/07 12:00:20;;;;;;;5.38;2.08;;;22.50;99.90;;;;;;5075886;28;20051;-62
2022/09/07 12:03:17;;;;;;;4.47;1.90;;;22.50;99.90;;;;;;5093903;28;20047;-62
2022/09/07 12:06:06;;;;;;;3.35;1.60;;;22.50;99.90;;;;;;5092884;28;20245;-62
2022/09/07 12:08:50;;;;;;;4.20;1.60;;;22.70;99.90;;;;;;5093869;28;20118;-61
2022/09/07 12:11:24;;;;;;;3.97;1.40;;;22.70;99.90;;;;;;5093279;28;20040;-61
2022/09/07 12:14:28;;;;;;;3.78;1.70;;;22.60;99.90;;;;;;5075332;28;20047;-62
2022/09/07 12:17:07;;;;;;;4.30;1.90;;;22.80;99.90;;;;;;5092259;28;20123;-61
2022/09/07 12:19:32;;;;;;;3.58;1.60;;;22.90;99.90;;;;;;5074521;28;20424;-62
2022/09/07 12:21:59;;;;;;;4.43;1.55;;;23.20;99.90;;;;;;5093512;28;20042;-62
2022/09/07 12:24:36;;;;;;;4.35;2.00;;;23.40;99.90;;;;;;5074370;28;20040;-62
2022/09/07 12:27:09;;;;;;;5.93;1.73;;;23.50;99.90;;;;;;5090729;28;20044;-62
2022/09/07 12:29:35;;;;;;;2.97;1.30;;;23.40;99.90;;;;;;5092074;28;20484;-62
2022/09/07 12:32:02;;;;;;;4.35;1.60;;;23.30;99.90;;;;;;5092424;28;20267;-62
2022/09/07 12:34:31;;;;;;;4.68;1.55;;;23.20;99.90;;;;;;5074362;28;20043;-62
2022/09/07 12:37:00;;;;;;;3.45;1.50;;;23.30;99.90;;;;;;5075040;28;20055;-62
2022/09/07 12:39:36;;;;;;;3.22;1.40;;;23.20;99.90;;;;;;5091748;28;20082;-62
2022/09/07 12:42:04;;;;;;;3.70;1.85;;;23.10;99.90;;;;;;5074634;28;20062;-62
2022/09/07 12:44:32;;;;;;;4.78;1.42;;;23.10;99.90;;;;;;5093034;28;20036;-62
2022/09/07 12:47:02;;;;;;;4.53;1.55;;;23.20;99.90;;;;;;5073950;28;20105;-62
2022/09/07 12:50:20;;;;;;;4.07;1.70;;;23.20;99.90;;;;;;5092744;28;20040;-62
2022/09/07 12:53:03;;;;;;;3.40;1.48;;;23.10;99.90;;;;;;4991339;28;20046;-62
2022/09/07 12:55:37;;;;;;;5.32;1.98;;;23.00;99.90;;;;;;5024712;28;20066;-62
2022/09/07 12:58:25;;;;;;;3.40;1.55;;;23.10;99.90;;;;;;5074243;28;20119;-62
2022/09/07 13:00:59;;;;;;;3.33;1.80;;;23.20;99.90;;;;;;5074103;28;20530;-62
2022/09/07 13:03:26;;;;;;;4.55;1.85;;;23.20;99.90;;;;;;5073991;28;20074;-62
2022/09/07 13:06:18;;;;;;;3.40;1.60;;;23.30;99.90;;;;;;5074595;28;20074;-62
2022/09/07 13:09:09;;;;;;;5.47;1.70;;;23.40;99.90;;;;;;5053659;28;20044;-62